createdAt,value
2018-11-27T00:01:51.414Z,95.85
2018-11-27T00:04:20.882Z,95.87
2018-11-27T00:06:50.794Z,95.82
2018-11-27T00:09:20.297Z,96.24
2018-11-27T00:11:50.202Z,96.34
2018-11-27T00:14:19.462Z,96.03
2018-11-27T00:16:48.800Z,96.60
2018-11-27T00:19:18.984Z,96.24
2018-11-27T00:21:48.322Z,96.01
2018-11-27T00:24:18.264Z,96.02
2018-11-27T00:26:47.795Z,95.80
2018-11-27T00:29:17.330Z,95.73
2018-11-27T00:31:46.920Z,95.73
2018-11-27T00:34:16.372Z,96.04
2018-11-27T00:36:46.150Z,95.71
2018-11-27T00:39:15.583Z,95.43
2018-11-27T00:41:45.832Z,95.72
2018-11-27T00:44:15.278Z,95.79
2018-11-27T00:46:45.153Z,95.67
2018-11-27T00:49:14.424Z,95.68
2018-11-27T00:51:43.884Z,95.64
2018-11-27T00:54:13.764Z,96.31
2018-11-27T00:56:43.128Z,95.78
2018-11-27T00:59:13.269Z,96.33
2018-11-27T01:01:46.485Z,95.83
2018-11-27T01:04:16.199Z,96.19
2018-11-27T01:06:45.798Z,96.44
2018-11-27T01:09:15.943Z,96.02
2018-11-27T01:11:46.098Z,95.72
2018-11-27T01:14:17.083Z,96.01
2018-11-27T01:16:48.337Z,96.00
2018-11-27T01:19:19.602Z,95.84
2018-11-27T01:21:49.503Z,96.22
2018-11-27T01:24:19.065Z,96.21
2018-11-27T01:26:48.522Z,96.21
2018-11-27T01:29:18.163Z,96.38
2018-11-27T01:31:47.742Z,96.47
2018-11-27T01:34:17.128Z,96.47
2018-11-27T01:36:47.324Z,96.46
2018-11-27T01:39:18.447Z,96.10
2018-11-27T01:41:47.904Z,96.41
2018-11-27T01:44:17.227Z,96.54
2018-11-27T01:46:46.944Z,96.42
2018-11-27T01:49:17.198Z,96.27
2018-11-27T01:51:46.571Z,96.27
2018-11-27T01:54:16.624Z,96.37
2018-11-27T01:56:45.969Z,96.18
2018-11-27T01:59:15.659Z,96.00
2018-11-27T02:01:46.304Z,95.97
2018-11-27T02:04:15.592Z,95.97
2018-11-27T02:06:44.970Z,95.81
2018-11-27T02:09:14.477Z,95.71
2018-11-27T02:11:44.163Z,96.09
2018-11-27T02:14:13.495Z,95.84
2018-11-27T02:16:43.609Z,95.67
2018-11-27T02:19:13.137Z,96.33
2018-11-27T02:21:42.470Z,96.39
2018-11-27T02:24:13.137Z,96.07
2018-11-27T02:26:43.248Z,96.17
2018-11-27T02:29:13.645Z,96.36
2018-11-27T02:31:43.764Z,95.98
2018-11-27T02:34:13.293Z,96.38
2018-11-27T02:36:43.064Z,96.06
2018-11-27T02:39:12.540Z,96.08
2018-11-27T02:41:41.934Z,96.49
2018-11-27T02:44:12.113Z,96.90
2018-11-27T02:46:42.510Z,96.81
2018-11-27T02:49:12.185Z,96.72
2018-11-27T02:51:42.383Z,96.66
2018-11-27T02:54:11.832Z,96.95
2018-11-27T02:56:41.290Z,96.42
2018-11-27T02:59:10.930Z,96.25
2018-11-27T03:01:40.258Z,96.61
2018-11-27T03:04:10.394Z,96.65
2018-11-27T03:06:39.871Z,96.96
2018-11-27T03:09:09.943Z,96.40
2018-11-27T03:11:40.034Z,96.59
2018-11-27T03:14:09.411Z,96.87
2018-11-27T03:16:39.598Z,96.47
2018-11-27T03:19:09.818Z,96.48
2018-11-27T03:21:39.412Z,96.29
2018-11-27T03:24:09.135Z,96.82
2018-11-27T03:26:39.210Z,96.74
2018-11-27T03:29:08.523Z,96.86
2018-11-27T03:31:37.909Z,96.46
2018-11-27T03:34:07.414Z,96.46
2018-11-27T03:36:37.104Z,96.95
2018-11-27T03:39:10.270Z,96.81
2018-11-27T03:41:39.680Z,97.04
2018-11-27T03:44:09.819Z,96.80
2018-11-27T03:46:39.117Z,96.95
2018-11-27T03:49:09.338Z,97.35
2018-11-27T03:51:38.888Z,96.85
2018-11-27T03:54:08.565Z,96.97
2018-11-27T03:56:37.880Z,97.14
2018-11-27T03:59:08.294Z,96.96
2018-11-27T04:01:37.643Z,96.97
2018-11-27T04:04:10.034Z,96.90
2018-11-27T04:06:36.691Z,96.69
2018-11-27T04:09:08.651Z,96.75
2018-11-27T04:11:38.852Z,97.02
2018-11-27T04:14:08.190Z,96.88
2018-11-27T04:16:37.490Z,96.72
2018-11-27T04:19:07.436Z,96.43
2018-11-27T04:21:36.785Z,96.74
2018-11-27T04:24:06.986Z,96.33
2018-11-27T04:26:36.391Z,96.41
2018-11-27T04:29:06.411Z,96.32
2018-11-27T04:31:35.949Z,96.29
2018-11-27T04:34:05.706Z,96.04
2018-11-27T04:36:35.206Z,96.01
2018-11-27T04:39:07.192Z,96.36
2018-11-27T04:41:37.544Z,96.61
2018-11-27T04:44:07.486Z,96.29
2018-11-27T04:46:36.846Z,96.49
2018-11-27T04:49:07.353Z,96.82
2018-11-27T04:51:37.155Z,96.66
2018-11-27T04:54:06.759Z,96.63
2018-11-27T04:56:36.606Z,96.53
2018-11-27T04:59:06.498Z,96.65
2018-11-27T05:01:36.002Z,97.11
2018-11-27T05:04:06.310Z,96.80
2018-11-27T05:06:35.791Z,97.24
2018-11-27T05:09:09.776Z,96.91
2018-11-27T05:11:39.770Z,97.13
2018-11-27T05:14:09.161Z,96.92
2018-11-27T05:16:39.209Z,97.11
2018-11-27T05:19:08.635Z,96.37
2018-11-27T05:21:38.194Z,96.38
2018-11-27T05:24:07.871Z,96.41
2018-11-27T05:26:37.176Z,96.11
2018-11-27T05:29:07.273Z,95.97
2018-11-27T05:31:36.534Z,95.94
2018-11-27T05:34:06.562Z,96.00
2018-11-27T05:36:36.070Z,96.01
2018-11-27T05:39:09.065Z,96.02
2018-11-27T05:41:38.555Z,95.84
2018-11-27T05:44:08.866Z,95.65
2018-11-27T05:46:38.249Z,95.30
2018-11-27T05:49:07.776Z,95.17
2018-11-27T05:51:37.106Z,95.64
2018-11-27T05:54:06.511Z,95.40
2018-11-27T05:56:36.466Z,95.86
2018-11-27T05:59:06.236Z,95.64
2018-11-27T06:01:35.832Z,95.39
2018-11-27T06:04:05.218Z,95.94
2018-11-27T06:06:34.920Z,96.07
2018-11-27T06:09:07.111Z,95.85
2018-11-27T06:11:36.735Z,96.01
2018-11-27T06:14:06.935Z,96.28
2018-11-27T06:16:36.490Z,96.33
2018-11-27T06:19:05.981Z,96.17
2018-11-27T06:21:35.664Z,95.80
2018-11-27T06:24:05.604Z,95.60
2018-11-27T06:26:34.943Z,95.95
2018-11-27T06:29:05.485Z,96.05
2018-11-27T06:31:35.433Z,96.01
2018-11-27T06:34:04.765Z,95.95
2018-11-27T06:36:34.170Z,95.58
2018-11-27T06:39:05.150Z,95.92
2018-11-27T06:41:34.786Z,96.77
2018-11-27T06:44:04.376Z,96.27
2018-11-27T06:46:33.759Z,96.23
2018-11-27T06:49:03.638Z,96.38
2018-11-27T06:51:33.135Z,95.69
2018-11-27T06:54:03.216Z,95.76
2018-11-27T06:56:32.590Z,96.17
2018-11-27T06:59:01.975Z,95.94
2018-11-27T07:01:31.479Z,96.10
2018-11-27T07:04:01.170Z,95.87
2018-11-27T07:06:30.516Z,95.48
2018-11-27T07:09:00.723Z,95.25
2018-11-27T07:11:30.273Z,95.73
2018-11-27T07:13:59.841Z,96.17
2018-11-27T07:16:29.244Z,96.12
2018-11-27T07:18:58.621Z,96.07
2018-11-27T07:21:29.363Z,95.65
2018-11-27T07:23:59.425Z,96.02
2018-11-27T07:26:28.954Z,95.97
2018-11-27T07:28:58.431Z,95.89
2018-11-27T07:31:28.409Z,95.84
2018-11-27T07:33:57.850Z,95.76
2018-11-27T07:36:27.430Z,95.91
2018-11-27T07:38:56.974Z,96.14
2018-11-27T07:41:26.500Z,95.83
2018-11-27T07:43:56.375Z,96.18
2018-11-27T07:46:25.850Z,95.78
2018-11-27T07:48:55.786Z,95.88
2018-11-27T07:51:26.014Z,95.78
2018-11-27T07:53:55.460Z,96.23
2018-11-27T07:56:25.616Z,96.10
2018-11-27T07:58:56.747Z,96.31
2018-11-27T08:01:26.547Z,96.12
2018-11-27T08:03:56.176Z,95.81
2018-11-27T08:06:26.547Z,96.19
2018-11-27T08:08:57.495Z,96.02
2018-11-27T08:11:27.085Z,96.08
2018-11-27T08:13:56.955Z,95.50
2018-11-27T08:16:26.688Z,95.93
2018-11-27T08:18:56.641Z,95.78
2018-11-27T08:21:26.479Z,95.17
2018-11-27T08:23:56.740Z,95.28
2018-11-27T08:26:26.469Z,95.11
2018-11-27T08:28:56.394Z,95.24
2018-11-27T08:31:26.550Z,95.75
2018-11-27T08:33:56.660Z,95.52
2018-11-27T08:36:26.758Z,95.15
2018-11-27T08:38:56.571Z,94.94
2018-11-27T08:41:26.320Z,95.23
2018-11-27T08:43:56.319Z,94.43
2018-11-27T08:46:26.768Z,93.69
2018-11-27T08:48:57.152Z,93.88
2018-11-27T08:51:26.905Z,93.59
2018-11-27T08:53:57.069Z,93.73
2018-11-27T08:56:27.477Z,92.68
2018-11-27T08:58:57.510Z,91.67
2018-11-27T09:01:27.880Z,91.30
2018-11-27T09:03:57.985Z,92.11
2018-11-27T09:06:28.800Z,92.19
2018-11-27T09:08:58.617Z,91.94
2018-11-27T09:11:28.251Z,91.49
2018-11-27T09:13:59.286Z,91.93
2018-11-27T09:16:29.590Z,92.08
2018-11-27T09:18:59.753Z,91.10
2018-11-27T09:21:29.620Z,92.09
2018-11-27T09:23:59.582Z,92.20
2018-11-27T09:26:29.615Z,91.43
2018-11-27T09:29:00.014Z,90.86
2018-11-27T09:31:30.106Z,91.04
2018-11-27T09:34:00.582Z,90.48
2018-11-27T09:36:31.131Z,90.63
2018-11-27T09:39:00.856Z,90.41
2018-11-27T09:41:31.116Z,89.79
2018-11-27T09:44:01.385Z,89.38
2018-11-27T09:46:31.486Z,89.27
2018-11-27T09:49:01.711Z,89.22
2018-11-27T09:51:31.316Z,89.01
2018-11-27T09:54:02.054Z,88.22
2018-11-27T09:56:32.260Z,88.71
2018-11-27T09:59:02.490Z,87.95
2018-11-27T10:01:32.759Z,87.57
2018-11-27T10:04:02.847Z,88.03
2018-11-27T10:06:33.112Z,88.32
2018-11-27T10:09:03.380Z,87.58
2018-11-27T10:11:34.283Z,88.51
2018-11-27T10:14:04.369Z,88.36
2018-11-27T10:16:34.904Z,88.73
2018-11-27T10:19:06.027Z,87.44
2018-11-27T10:21:36.021Z,87.31
2018-11-27T10:24:06.078Z,87.52
2018-11-27T10:26:36.308Z,87.68
2018-11-27T10:29:06.326Z,88.41
2018-11-27T10:31:35.752Z,86.70
2018-11-27T10:34:05.931Z,86.60
2018-11-27T10:36:35.583Z,86.68
2018-11-27T10:39:07.309Z,87.25
2018-11-27T10:41:36.736Z,85.65
2018-11-27T10:44:07.029Z,85.95
2018-11-27T10:46:37.311Z,86.33
2018-11-27T10:49:08.113Z,86.86
2018-11-27T10:51:38.395Z,87.05
2018-11-27T10:54:07.901Z,86.66
2018-11-27T10:56:37.688Z,86.61
2018-11-27T10:59:08.002Z,86.49
2018-11-27T11:01:43.010Z,86.46
2018-11-27T11:04:13.287Z,87.54
2018-11-27T11:06:42.727Z,87.64
2018-11-27T11:09:12.606Z,88.13
2018-11-27T11:11:42.115Z,88.11
2018-11-27T11:14:12.426Z,87.60
2018-11-27T11:16:42.351Z,87.38
2018-11-27T11:19:12.433Z,87.86
2018-11-27T11:21:41.971Z,88.40
2018-11-27T11:24:11.368Z,89.10
2018-11-27T11:26:41.255Z,88.96
2018-11-27T11:29:11.302Z,89.50
2018-11-27T11:31:41.487Z,89.41
2018-11-27T11:34:10.783Z,89.53
2018-11-27T11:36:40.037Z,90.18
2018-11-27T11:39:11.050Z,89.79
2018-11-27T11:41:41.313Z,89.99
2018-11-27T11:44:10.858Z,89.58
2018-11-27T11:46:40.386Z,89.57
2018-11-27T11:49:09.891Z,89.68
2018-11-27T11:51:40.184Z,89.40
2018-11-27T11:54:09.639Z,89.79
2018-11-27T11:56:39.152Z,89.60
2018-11-27T11:59:09.574Z,89.14
2018-11-27T12:01:39.048Z,89.02
2018-11-27T12:04:08.578Z,89.58
2018-11-27T12:06:38.416Z,89.38
2018-11-27T12:09:09.484Z,88.31
2018-11-27T12:11:38.942Z,87.92
2018-11-27T12:14:09.019Z,88.49
2018-11-27T12:16:39.154Z,87.75
2018-11-27T12:19:08.590Z,87.90
2018-11-27T12:21:39.641Z,88.43
2018-11-27T12:24:09.797Z,88.35
2018-11-27T12:26:39.909Z,88.46
2018-11-27T12:29:09.323Z,88.39
2018-11-27T12:31:39.412Z,87.94
2018-11-27T12:34:08.939Z,88.08
2018-11-27T12:36:38.632Z,87.47
2018-11-27T12:39:08.938Z,87.52
2018-11-27T12:41:38.228Z,87.20
2018-11-27T12:44:07.701Z,87.60
2018-11-27T12:46:37.592Z,87.92
2018-11-27T12:49:07.154Z,87.50
2018-11-27T12:51:37.372Z,86.13
2018-11-27T12:54:07.373Z,85.59
2018-11-27T12:56:37.459Z,86.25
2018-11-27T12:59:08.716Z,85.35
2018-11-27T13:01:38.521Z,85.76
2018-11-27T13:04:08.347Z,85.92
2018-11-27T13:06:38.550Z,85.43
2018-11-27T13:09:10.768Z,84.90
2018-11-27T13:11:40.736Z,83.88
2018-11-27T13:14:10.904Z,84.83
2018-11-27T13:16:41.148Z,84.81
2018-11-27T13:19:11.443Z,84.11
2018-11-27T13:21:41.648Z,84.21
2018-11-27T13:24:15.568Z,84.21
2018-11-27T13:26:45.675Z,84.71
2018-11-27T13:29:15.578Z,84.75
2018-11-27T13:31:46.253Z,85.42
2018-11-27T13:34:16.664Z,85.35
2018-11-27T13:36:46.587Z,84.82
2018-11-27T13:39:27.427Z,84.96
2018-11-27T13:41:57.166Z,84.79
2018-11-27T13:44:27.004Z,84.89
2018-11-27T13:46:56.914Z,85.12
2018-11-27T13:49:27.784Z,84.80
2018-11-27T13:51:56.198Z,85.59
2018-11-27T13:54:25.873Z,85.69
2018-11-27T13:56:56.789Z,85.63
2018-11-27T13:59:27.090Z,85.72
2018-11-27T14:01:56.989Z,85.91
2018-11-27T14:04:26.742Z,85.60
2018-11-27T14:06:57.252Z,85.94
2018-11-27T14:09:27.077Z,85.21
2018-11-27T14:11:58.259Z,84.95
2018-11-27T14:14:28.568Z,84.36
2018-11-27T14:16:58.509Z,84.06
2018-11-27T14:19:28.291Z,83.25
2018-11-27T14:21:58.002Z,83.72
2018-11-27T14:24:28.039Z,84.94
2018-11-27T14:26:58.394Z,84.57
2018-11-27T14:29:28.528Z,85.12
2018-11-27T14:31:58.977Z,85.14
2018-11-27T14:34:29.038Z,85.63
2018-11-27T14:36:59.166Z,86.94
2018-11-27T14:39:32.529Z,86.91
2018-11-27T14:42:02.550Z,87.14
2018-11-27T14:44:32.637Z,87.68
2018-11-27T14:47:02.601Z,87.34
2018-11-27T14:49:33.436Z,86.96
2018-11-27T14:52:04.039Z,87.35
2018-11-27T14:54:33.884Z,88.01
2018-11-27T14:57:04.687Z,87.84
2018-11-27T14:59:34.579Z,87.95
2018-11-27T15:02:04.944Z,88.52
2018-11-27T15:04:34.702Z,87.92
2018-11-27T15:07:04.503Z,88.59
2018-11-27T15:09:34.693Z,88.44
2018-11-27T15:12:05.019Z,88.44
2018-11-27T15:14:35.031Z,88.92
2018-11-27T15:17:05.226Z,89.17
2018-11-27T15:19:35.324Z,88.77
2018-11-27T15:22:05.549Z,89.17
2018-11-27T15:24:35.029Z,89.55
2018-11-27T15:27:04.720Z,89.63
2018-11-27T15:29:34.250Z,90.13
2018-11-27T15:32:03.747Z,89.73
2018-11-27T15:34:33.618Z,89.57
2018-11-27T15:37:03.944Z,89.95
2018-11-27T15:39:34.014Z,90.48
2018-11-27T15:42:04.308Z,91.07
2018-11-27T15:44:34.004Z,90.82
2018-11-27T15:47:03.628Z,91.10
2018-11-27T15:49:33.937Z,91.10
2018-11-27T15:52:03.384Z,91.22
2018-11-27T15:54:33.181Z,92.07
2018-11-27T15:57:02.659Z,92.04
2018-11-27T15:59:32.628Z,91.73
2018-11-27T16:02:02.032Z,91.88
2018-11-27T16:04:32.089Z,92.31
2018-11-27T16:07:02.565Z,92.60
2018-11-27T16:09:32.139Z,92.79
2018-11-27T16:12:02.189Z,92.76
2018-11-27T16:14:32.234Z,92.92
2018-11-27T16:17:01.815Z,92.65
2018-11-27T16:19:31.531Z,93.27
2018-11-27T16:22:01.260Z,93.26
2018-11-27T16:24:30.896Z,93.13
2018-11-27T16:27:00.931Z,93.30
2018-11-27T16:29:31.340Z,92.79
2018-11-27T16:32:01.550Z,92.64
2018-11-27T16:34:31.584Z,93.89
2018-11-27T16:37:02.005Z,93.60
2018-11-27T16:39:32.130Z,93.61
2018-11-27T16:42:03.051Z,93.80
2018-11-27T16:44:33.294Z,93.37
2018-11-27T16:47:03.776Z,93.54
2018-11-27T16:49:33.396Z,93.75
2018-11-27T16:52:04.019Z,93.91
2018-11-27T16:54:34.041Z,93.89
2018-11-27T16:57:03.911Z,93.99
2018-11-27T16:59:33.689Z,93.71
2018-11-27T17:02:03.684Z,93.97
2018-11-27T17:04:33.964Z,94.13
2018-11-27T17:07:04.335Z,93.85
2018-11-27T17:09:35.546Z,94.25
2018-11-27T17:12:06.701Z,94.47
2018-11-27T17:14:36.785Z,94.09
2018-11-27T17:17:06.830Z,94.47
2018-11-27T17:19:36.977Z,94.51
2018-11-27T17:22:08.149Z,94.54
2018-11-27T17:24:37.616Z,94.03
2018-11-27T17:27:07.669Z,94.26
2018-11-27T17:29:37.480Z,94.20
2018-11-27T17:32:07.374Z,94.37
2018-11-27T17:34:37.249Z,94.30
2018-11-27T17:37:07.592Z,94.40
2018-11-27T17:39:38.678Z,94.29
2018-11-27T17:42:08.922Z,94.21
2018-11-27T17:44:39.415Z,94.71
2018-11-27T17:47:09.235Z,95.23
2018-11-27T17:49:38.693Z,95.90
2018-11-27T17:52:08.893Z,95.40
2018-11-27T17:54:38.785Z,96.00
2018-11-27T17:57:09.503Z,95.65
2018-11-27T17:59:39.271Z,95.73
2018-11-27T18:02:08.695Z,96.03
2018-11-27T18:04:38.593Z,95.73
2018-11-27T18:07:08.812Z,96.62
2018-11-27T18:09:38.444Z,96.78
2018-11-27T18:12:08.249Z,97.43
2018-11-27T18:14:38.477Z,97.28
2018-11-27T18:17:07.837Z,97.47
2018-11-27T18:19:37.489Z,98.62
2018-11-27T18:22:07.696Z,98.97
2018-11-27T18:24:38.484Z,99.09
2018-11-27T18:27:07.569Z,99.15
2018-11-27T18:29:37.747Z,98.93
2018-11-27T18:32:07.631Z,99.36
2018-11-27T18:34:37.182Z,99.16
2018-11-27T18:37:07.292Z,99.27
2018-11-27T18:39:37.527Z,99.01
2018-11-27T18:42:07.716Z,98.28
2018-11-27T18:44:37.237Z,98.26
2018-11-27T18:47:07.135Z,98.09
2018-11-27T18:49:37.514Z,97.69
2018-11-27T18:52:07.506Z,97.42
2018-11-27T18:54:36.990Z,97.05
2018-11-27T18:57:07.136Z,97.08
2018-11-27T18:59:37.001Z,97.36
2018-11-27T19:02:07.131Z,96.77
2018-11-27T19:04:36.782Z,97.13
2018-11-27T19:08:30.864Z,97.11
2018-11-27T19:11:00.940Z,96.59
2018-11-27T19:13:30.806Z,96.51
2018-11-27T19:16:01.561Z,96.76
2018-11-27T19:18:31.521Z,96.69
2018-11-27T19:21:02.431Z,96.79
2018-11-27T19:23:32.439Z,97.09
2018-11-27T19:26:03.551Z,97.60
2018-11-27T19:28:33.615Z,97.58
2018-11-27T19:31:04.886Z,97.36
2018-11-27T19:33:35.790Z,97.52
2018-11-27T19:36:07.260Z,97.64
2018-11-27T19:38:38.025Z,97.71
2018-11-27T19:41:08.892Z,97.59
2018-11-27T19:43:40.366Z,97.91
2018-11-27T19:46:12.533Z,97.82
2018-11-27T19:48:43.725Z,97.68
2018-11-27T19:51:15.174Z,98.27
2018-11-27T19:53:46.089Z,98.51
2018-11-27T19:56:17.338Z,99.20
2018-11-27T19:58:48.245Z,99.36
2018-11-27T20:01:18.739Z,99.64
2018-11-27T20:03:48.756Z,99.99
2018-11-27T20:06:20.465Z,99.55
2018-11-27T20:08:50.411Z,99.05
2018-11-27T20:11:22.308Z,99.04
2018-11-27T20:13:52.540Z,98.75
2018-11-27T20:16:23.676Z,98.89
2018-11-27T20:18:54.997Z,98.68
2018-11-27T20:21:25.761Z,98.97
2018-11-27T20:23:56.455Z,98.59
2018-11-27T20:26:27.641Z,98.62
2018-11-27T20:28:57.905Z,98.35
2018-11-27T20:31:28.446Z,98.15
2018-11-27T20:33:58.823Z,98.18
2018-11-27T20:36:30.326Z,98.57
2018-11-27T20:39:00.766Z,98.27
2018-11-27T20:41:32.425Z,98.61
2018-11-27T20:44:02.940Z,98.80
2018-11-27T20:46:33.677Z,98.81
2018-11-27T20:49:04.661Z,99.21
2018-11-27T20:51:35.115Z,98.64
2018-11-27T20:54:04.844Z,98.31
2018-11-27T20:56:34.652Z,98.44
2018-11-27T20:59:04.824Z,98.88
2018-11-27T21:01:34.847Z,98.74
2018-11-27T21:04:05.246Z,98.80
2018-11-27T21:06:35.257Z,98.47
2018-11-27T21:09:05.506Z,98.19
2018-11-27T21:11:35.554Z,98.21
2018-11-27T21:14:05.808Z,97.90
2018-11-27T21:16:35.936Z,97.77
2018-11-27T21:19:06.372Z,98.02
2018-11-27T21:21:36.296Z,98.29
2018-11-27T21:24:07.455Z,97.92
2018-11-27T21:26:37.857Z,98.38
2018-11-27T21:29:08.207Z,98.80
2018-11-27T21:31:41.148Z,98.43
2018-11-27T21:34:11.101Z,98.46
2018-11-27T21:36:40.645Z,98.13
2018-11-27T21:39:10.865Z,97.83
2018-11-27T21:41:40.862Z,98.36
2018-11-27T21:44:11.190Z,97.94
2018-11-27T21:46:43.176Z,98.11
2018-11-27T21:49:12.909Z,97.62
2018-11-27T21:51:42.702Z,97.30
2018-11-27T21:54:12.151Z,97.03
2018-11-27T21:56:42.946Z,96.71
2018-11-27T21:59:13.275Z,96.71
2018-11-27T22:01:42.744Z,95.99
2018-11-27T22:04:12.200Z,96.38
2018-11-27T22:06:41.908Z,96.50
2018-11-27T22:09:12.281Z,96.83
2018-11-27T22:11:41.830Z,96.18
2018-11-27T22:14:11.488Z,96.42
2018-11-27T22:16:41.861Z,96.30
2018-11-27T22:19:12.100Z,96.88
2018-11-27T22:21:42.241Z,96.75
2018-11-27T22:24:11.727Z,97.21
2018-11-27T22:26:41.678Z,97.20
2018-11-27T22:29:11.731Z,97.95
2018-11-27T22:31:41.239Z,97.92
2018-11-27T22:34:11.043Z,98.39
2018-11-27T22:36:41.407Z,98.53
2018-11-27T22:39:10.730Z,99.02
2018-11-27T22:41:41.141Z,98.73
2018-11-27T22:44:11.027Z,98.57
2018-11-27T22:46:40.532Z,99.17
2018-11-27T22:49:10.427Z,98.37
2018-11-27T22:51:39.889Z,98.33
2018-11-27T22:54:09.756Z,98.44
2018-11-27T22:56:39.170Z,98.00
2018-11-27T22:59:08.756Z,98.31
2018-11-27T23:01:39.919Z,97.78
2018-11-27T23:04:09.542Z,97.44
2018-11-27T23:06:39.847Z,97.65
2018-11-27T23:09:10.047Z,97.12
2018-11-27T23:11:39.605Z,97.57
2018-11-27T23:14:09.555Z,97.86
2018-11-27T23:16:39.561Z,98.08
2018-11-27T23:19:08.929Z,98.19
2018-11-27T23:21:38.275Z,97.93
2018-11-27T23:24:07.792Z,98.29
2018-11-27T23:26:37.103Z,98.16
2018-11-27T23:29:06.886Z,98.18
2018-11-27T23:31:37.718Z,98.00
2018-11-27T23:34:07.089Z,98.14
2018-11-27T23:36:36.623Z,98.64
2018-11-27T23:39:08.482Z,98.70
2018-11-27T23:41:37.847Z,98.32
2018-11-27T23:44:07.869Z,98.62
2018-11-27T23:46:37.415Z,98.57
2018-11-27T23:49:07.384Z,98.45
2018-11-27T23:51:37.607Z,97.96
2018-11-27T23:54:07.864Z,98.04
2018-11-27T23:56:38.062Z,98.24
2018-11-27T23:59:08.324Z,97.86
